createdAt,value
2019-05-13T00:00:14.641Z,8.78
2019-05-13T00:02:43.761Z,11.53
2019-05-13T00:05:14.594Z,13.13
2019-05-13T00:07:43.932Z,12.23
2019-05-13T00:10:14.724Z,11.63
2019-05-13T00:12:44.602Z,9.70
2019-05-13T00:15:13.923Z,10.53
2019-05-13T00:17:44.533Z,8.78
2019-05-13T00:20:14.063Z,8.73
2019-05-13T00:22:44.839Z,9.65
2019-05-13T00:25:14.467Z,9.80
2019-05-13T00:27:44.517Z,10.40
2019-05-13T00:30:14.423Z,9.08
2019-05-13T00:32:44.654Z,9.38
2019-05-13T00:35:14.225Z,10.98
2019-05-13T00:37:44.284Z,8.75
2019-05-13T00:40:14.442Z,9.85
2019-05-13T00:42:44.089Z,10.18
2019-05-13T00:45:14.546Z,8.73
2019-05-13T00:47:43.696Z,11.78
2019-05-13T00:50:14.352Z,9.05
2019-05-13T00:52:44.537Z,9.95
2019-05-13T00:55:14.490Z,13.25
2019-05-13T00:57:43.631Z,8.80
2019-05-13T01:00:14.122Z,10.50
2019-05-13T01:02:44.351Z,9.53
2019-05-13T01:05:14.365Z,9.93
2019-05-13T01:07:44.387Z,9.58
2019-05-13T01:10:13.310Z,9.68
2019-05-13T01:12:43.803Z,10.35
2019-05-13T01:15:13.525Z,9.63
2019-05-13T01:17:44.465Z,10.05
2019-05-13T01:20:14.317Z,12.33
2019-05-13T01:22:44.006Z,9.20
2019-05-13T01:25:14.503Z,9.23
2019-05-13T01:27:44.169Z,9.35
2019-05-13T01:30:13.376Z,11.10
2019-05-13T01:32:44.578Z,9.45
2019-05-13T01:35:11.922Z,10.85
2019-05-13T01:37:43.396Z,11.28
2019-05-13T01:40:10.218Z,11.63
2019-05-13T01:42:38.520Z,11.50
2019-05-13T01:45:06.914Z,11.55
2019-05-13T01:47:35.153Z,10.43
2019-05-13T01:50:04.749Z,11.00
2019-05-13T01:52:34.353Z,10.78
2019-05-13T01:55:04.033Z,10.65
2019-05-13T01:57:34.295Z,11.83
2019-05-13T02:00:04.666Z,11.45
2019-05-13T02:02:33.675Z,13.28
2019-05-13T02:05:03.919Z,10.23
2019-05-13T02:07:33.523Z,11.08
2019-05-13T02:10:04.257Z,11.18
2019-05-13T02:12:34.033Z,11.22
2019-05-13T02:15:04.446Z,10.28
2019-05-13T02:17:33.727Z,12.55
2019-05-13T02:20:03.871Z,11.20
2019-05-13T02:22:33.676Z,10.85
2019-05-13T02:25:04.490Z,10.38
2019-05-13T02:27:34.399Z,10.05
2019-05-13T02:30:05.669Z,11.48
2019-05-13T02:32:32.947Z,12.03
2019-05-13T02:35:02.744Z,12.73
2019-05-13T02:37:34.315Z,11.05
2019-05-13T02:40:03.451Z,12.15
2019-05-13T02:42:32.731Z,12.58
2019-05-13T02:45:03.745Z,11.43
2019-05-13T02:47:33.095Z,11.95
2019-05-13T02:50:04.819Z,13.88
2019-05-13T02:52:34.336Z,11.93
2019-05-13T02:55:03.890Z,11.15
2019-05-13T02:57:32.958Z,12.18
2019-05-13T03:00:04.176Z,11.20
2019-05-13T03:02:32.746Z,10.53
2019-05-13T03:05:03.208Z,11.22
2019-05-13T03:07:33.363Z,12.15
2019-05-13T03:10:04.269Z,14.15
2019-05-13T03:12:32.243Z,12.82
2019-05-13T03:15:02.727Z,12.73
2019-05-13T03:17:38.201Z,12.45
2019-05-13T03:20:06.818Z,12.07
2019-05-13T03:22:35.070Z,12.30
2019-05-13T03:25:04.494Z,12.93
2019-05-13T03:27:34.019Z,14.75
2019-05-13T03:30:04.399Z,13.08
2019-05-13T03:32:42.963Z,13.55
2019-05-13T03:35:07.287Z,13.48
2019-05-13T03:37:34.801Z,11.88
2019-05-13T03:40:03.288Z,14.80
2019-05-13T03:42:33.425Z,11.80
2019-05-13T03:45:03.215Z,11.93
2019-05-13T03:47:32.882Z,11.83
2019-05-13T03:50:03.611Z,12.43
2019-05-13T03:52:33.690Z,12.37
2019-05-13T03:55:03.155Z,13.70
2019-05-13T03:57:33.746Z,12.88
2019-05-13T04:00:03.490Z,11.73
2019-05-13T04:02:32.594Z,15.28
2019-05-13T04:05:04.039Z,12.18
2019-05-13T04:07:32.628Z,15.38
2019-05-13T04:10:03.314Z,11.90
2019-05-13T04:12:33.380Z,12.10
2019-05-13T04:15:03.500Z,25.88
2019-05-13T04:17:32.086Z,14.68
2019-05-13T04:20:02.778Z,16.12
2019-05-13T04:22:33.295Z,12.40
2019-05-13T04:25:02.482Z,12.10
2019-05-13T04:27:32.733Z,11.57
2019-05-13T04:30:03.483Z,13.05
2019-05-13T04:32:33.621Z,13.98
2019-05-13T04:35:03.801Z,12.40
2019-05-13T04:37:32.872Z,12.53
2019-05-13T04:40:03.717Z,11.40
2019-05-13T04:42:33.311Z,11.68
2019-05-13T04:45:02.968Z,11.25
2019-05-13T04:47:33.176Z,12.73
2019-05-13T04:50:02.937Z,13.32
2019-05-13T04:52:33.036Z,13.53
2019-05-13T04:55:03.572Z,12.63
2019-05-13T04:57:33.138Z,14.47
2019-05-13T05:00:04.209Z,12.60
2019-05-13T05:02:56.322Z,14.95
2019-05-13T05:05:57.425Z,14.80
2019-05-13T05:09:03.318Z,14.55
2019-05-13T05:11:52.732Z,13.32
2019-05-13T05:14:25.670Z,14.28
2019-05-13T05:17:02.925Z,12.25
2019-05-13T05:19:47.417Z,11.85
2019-05-13T05:22:42.384Z,12.28
2019-05-13T05:25:34.625Z,10.90
2019-05-13T05:28:12.185Z,10.00
2019-05-13T05:31:04.884Z,13.08
2019-05-13T05:33:48.685Z,10.72
2019-05-13T05:36:25.774Z,11.88
2019-05-13T05:39:04.250Z,11.45
2019-05-13T05:41:32.530Z,10.88
2019-05-13T05:44:02.332Z,11.22
2019-05-13T05:46:32.406Z,10.55
2019-05-13T05:49:03.909Z,11.53
2019-05-13T05:51:32.993Z,13.70
2019-05-13T05:54:02.500Z,13.88
2019-05-13T05:56:32.513Z,12.98
2019-05-13T05:59:02.902Z,10.75
2019-05-13T06:01:33.142Z,11.18
2019-05-13T06:04:01.609Z,11.85
2019-05-13T06:06:32.747Z,9.65
2019-05-13T06:09:01.928Z,9.60
2019-05-13T06:11:31.200Z,11.45
2019-05-13T06:14:02.131Z,8.55
2019-05-13T06:16:31.862Z,9.08
2019-05-13T06:19:01.469Z,9.85
2019-05-13T06:21:31.940Z,8.75
2019-05-13T06:23:59.471Z,10.78
2019-05-13T06:26:27.721Z,10.15
2019-05-13T06:28:55.986Z,9.25
2019-05-13T06:31:24.384Z,10.30
2019-05-13T06:33:52.635Z,10.53
2019-05-13T06:36:22.117Z,9.78
2019-05-13T06:38:51.354Z,15.93
2019-05-13T06:41:21.800Z,9.40
2019-05-13T06:43:52.230Z,7.03
2019-05-13T06:46:21.846Z,10.75
2019-05-13T06:48:51.919Z,6.53
2019-05-13T06:51:22.040Z,8.98
2019-05-13T06:53:51.757Z,8.08
2019-05-13T06:56:21.744Z,9.60
2019-05-13T06:58:51.831Z,8.40
2019-05-13T07:01:21.728Z,8.65
2019-05-13T07:03:51.802Z,7.03
2019-05-13T07:06:21.707Z,10.35
2019-05-13T07:08:51.965Z,8.65
2019-05-13T07:11:22.372Z,8.68
2019-05-13T07:13:51.493Z,8.08
2019-05-13T07:16:19.501Z,10.58
2019-05-13T07:18:47.760Z,6.90
2019-05-13T07:21:16.038Z,8.60
2019-05-13T07:23:44.262Z,8.55
2019-05-13T07:26:12.541Z,9.75
2019-05-13T07:28:42.926Z,8.58
2019-05-13T07:31:11.551Z,10.32
2019-05-13T07:33:42.450Z,7.72
2019-05-13T07:36:12.532Z,7.50
2019-05-13T07:38:41.557Z,6.28
2019-05-13T07:41:12.032Z,8.33
2019-05-13T07:43:42.491Z,7.55
2019-05-13T07:46:12.379Z,7.87
2019-05-13T07:48:41.601Z,10.18
2019-05-13T07:51:11.966Z,7.92
2019-05-13T07:53:42.416Z,6.20
2019-05-13T07:56:11.783Z,7.35
2019-05-13T07:58:41.877Z,7.70
2019-05-13T08:01:12.205Z,9.80
2019-05-13T08:03:42.157Z,8.28
2019-05-13T08:06:11.159Z,7.30
2019-05-13T08:08:41.680Z,7.55
2019-05-13T08:11:13.015Z,6.67
2019-05-13T08:13:42.077Z,6.33
2019-05-13T08:16:12.326Z,7.12
2019-05-13T08:18:43.662Z,9.38
2019-05-13T08:21:12.340Z,7.55
2019-05-13T08:24:17.270Z,6.03
2019-05-13T08:27:02.588Z,9.08
2019-05-13T08:29:48.151Z,7.97
2019-05-13T08:35:22.705Z,6.08
2019-05-13T08:38:01.407Z,5.90
2019-05-13T08:40:37.306Z,6.22
2019-05-13T08:43:25.590Z,6.42
2019-05-13T08:48:46.415Z,10.20
2019-05-13T08:51:26.357Z,7.70
2019-05-13T08:54:12.189Z,7.08
2019-05-13T08:56:44.990Z,5.25
2019-05-13T09:02:13.971Z,5.30
2019-05-13T09:04:47.575Z,6.60
2019-05-13T09:10:31.890Z,6.25
2019-05-13T09:13:03.149Z,7.70
2019-05-13T09:15:31.712Z,7.35
2019-05-13T09:26:43.132Z,5.80
2019-05-13T09:29:24.266Z,6.17
2019-05-13T09:34:52.220Z,7.20
2019-05-13T09:37:35.628Z,6.35
2019-05-13T09:40:13.187Z,6.08
2019-05-13T09:42:52.762Z,8.53
2019-05-13T09:45:15.769Z,3.62
2019-05-13T09:47:44.121Z,6.12
2019-05-13T09:50:29.395Z,6.28
2019-05-13T09:52:53.259Z,5.60
2019-05-13T09:55:29.383Z,4.37
2019-05-13T10:00:53.351Z,4.67
2019-05-13T10:03:29.404Z,6.17
2019-05-13T10:08:58.740Z,5.80
2019-05-13T10:17:15.098Z,4.97
2019-05-13T10:23:07.869Z,4.33
2019-05-13T10:31:31.414Z,5.28
2019-05-13T10:34:02.270Z,5.20
2019-05-13T10:39:26.590Z,8.13
2019-05-13T10:45:22.232Z,5.30
2019-05-13T10:48:13.525Z,7.08
2019-05-13T10:53:48.332Z,6.30
2019-05-13T10:56:33.696Z,6.10
2019-05-13T10:59:14.921Z,10.13
2019-05-13T11:04:41.802Z,7.15
2019-05-13T11:07:22.479Z,9.00
2019-05-13T11:18:43.565Z,5.25
2019-05-13T11:21:21.255Z,6.58
2019-05-13T11:23:58.799Z,4.87
2019-05-13T11:35:06.999Z,7.33
2019-05-13T11:37:44.432Z,46.20
2019-05-13T11:40:22.516Z,24.02
2019-05-13T11:43:18.355Z,23.47
2019-05-13T11:45:51.816Z,26.07
2019-05-13T11:56:49.096Z,4.60
2019-05-13T12:02:42.548Z,4.03
2019-05-13T12:05:22.745Z,4.30
2019-05-13T12:10:51.836Z,7.40
2019-05-13T12:13:24.313Z,5.25
2019-05-13T12:16:51.710Z,7.80
2019-05-13T12:21:23.238Z,13.25
2019-05-13T12:24:13.377Z,5.92
2019-05-13T12:26:48.047Z,6.60
2019-05-13T12:29:39.057Z,5.08
2019-05-13T12:32:26.901Z,4.60
2019-05-13T12:34:48.942Z,5.30
2019-05-13T12:37:33.505Z,5.08
2019-05-13T12:51:51.788Z,7.10
2019-05-13T12:54:33.902Z,5.87
2019-05-13T12:57:12.006Z,7.40
2019-05-13T12:59:47.555Z,4.75
2019-05-13T13:02:32.460Z,4.58
2019-05-13T13:05:28.809Z,3.08
2019-05-13T13:08:13.740Z,4.35
2019-05-13T13:13:18.457Z,4.43
2019-05-13T13:15:56.594Z,5.95
2019-05-13T13:18:35.006Z,2.83
2019-05-13T13:24:09.034Z,5.25
2019-05-13T13:26:47.189Z,3.87
2019-05-13T13:29:24.573Z,3.22
2019-05-13T13:32:02.905Z,5.12
2019-05-13T13:34:44.654Z,2.42
2019-05-13T13:40:25.956Z,3.58
2019-05-13T13:42:56.076Z,4.30
2019-05-13T13:45:52.021Z,4.90
2019-05-13T13:48:25.171Z,3.70
2019-05-13T13:51:08.599Z,3.75
2019-05-13T13:56:47.563Z,3.27
2019-05-13T13:59:24.573Z,4.05
2019-05-13T14:01:55.612Z,7.42
2019-05-13T14:04:42.945Z,5.20
2019-05-13T14:06:30.769Z,6.45
2019-05-13T14:13:09.537Z,5.85
2019-05-13T14:15:45.955Z,3.65
2019-05-13T14:18:33.609Z,3.12
2019-05-13T14:27:22.453Z,2.98
2019-05-13T14:32:58.570Z,6.12
2019-05-13T14:38:28.679Z,2.60
2019-05-13T14:41:09.086Z,4.28
2019-05-13T14:43:45.283Z,4.53
2019-05-13T14:46:14.680Z,4.37
2019-05-13T14:49:19.287Z,3.25
2019-05-13T14:51:36.078Z,2.10
2019-05-13T14:54:31.344Z,3.92
2019-05-13T15:00:02.397Z,2.95
2019-05-13T15:02:42.890Z,3.15
2019-05-13T15:05:16.979Z,4.55
2019-05-13T15:10:45.116Z,5.33
2019-05-13T15:13:32.038Z,2.90
2019-05-13T15:16:06.773Z,3.47
2019-05-13T15:24:43.021Z,5.70
2019-05-13T15:27:22.213Z,3.45
2019-05-13T15:30:12.507Z,3.62
2019-05-13T15:32:38.748Z,3.85
2019-05-13T15:35:13.496Z,3.47
2019-05-13T15:37:53.259Z,3.00
2019-05-13T15:40:28.477Z,4.30
2019-05-13T15:45:52.253Z,2.75
2019-05-13T15:48:22.201Z,3.27
2019-05-13T15:50:58.339Z,4.40
2019-05-13T15:53:39.317Z,4.83
2019-05-13T15:56:09.502Z,3.62
2019-05-13T15:58:44.082Z,2.98
2019-05-13T16:01:12.442Z,2.92
2019-05-13T16:03:41.564Z,1.77
2019-05-13T16:06:10.033Z,2.45
2019-05-13T16:08:38.365Z,4.17
2019-05-13T16:11:06.617Z,2.62
2019-05-13T16:13:34.859Z,3.90
2019-05-13T16:16:03.515Z,5.17
2019-05-13T16:18:31.993Z,1.77
2019-05-13T16:21:01.566Z,5.12
2019-05-13T16:23:32.335Z,2.22
2019-05-13T16:26:01.654Z,3.92
2019-05-13T16:28:32.515Z,4.95
2019-05-13T16:31:02.283Z,5.10
2019-05-13T16:33:31.365Z,3.17
2019-05-13T16:36:02.282Z,3.58
2019-05-13T16:38:32.593Z,2.75
2019-05-13T16:40:59.816Z,2.30
2019-05-13T16:43:28.167Z,4.22
2019-05-13T16:45:56.400Z,4.87
2019-05-13T16:48:24.644Z,5.12
2019-05-13T16:50:52.901Z,4.42
2019-05-13T16:53:25.652Z,4.95
2019-05-13T16:55:51.167Z,2.83
2019-05-13T16:58:24.415Z,5.22
2019-05-13T17:00:51.603Z,3.05
2019-05-13T17:03:21.214Z,4.17
2019-05-13T17:05:51.406Z,4.53
2019-05-13T17:08:19.508Z,2.98
2019-05-13T17:10:47.782Z,3.67
2019-05-13T17:13:16.007Z,5.33
2019-05-13T17:15:44.288Z,2.27
2019-05-13T17:18:15.304Z,5.15
2019-05-13T17:20:42.511Z,4.55
2019-05-13T17:23:12.494Z,3.55
2019-05-13T17:25:42.341Z,3.47
2019-05-13T17:28:13.266Z,2.72
2019-05-13T17:30:40.776Z,2.92
2019-05-13T17:33:11.583Z,3.55
2019-05-13T17:35:39.054Z,3.62
2019-05-13T17:38:07.292Z,2.60
2019-05-13T17:40:35.688Z,2.75
2019-05-13T17:43:03.966Z,4.75
2019-05-13T17:45:32.225Z,3.83
2019-05-13T17:48:01.068Z,4.33
2019-05-13T17:50:31.380Z,2.15
2019-05-13T17:53:01.898Z,3.20
2019-05-13T17:55:29.392Z,5.83
2019-05-13T17:57:57.634Z,4.45
2019-05-13T18:00:25.901Z,3.55
2019-05-13T18:02:54.251Z,3.85
2019-05-13T18:05:22.683Z,4.58
2019-05-13T18:07:51.375Z,3.25
2019-05-13T18:10:19.716Z,3.87
2019-05-13T18:12:47.969Z,4.50
2019-05-13T18:15:16.311Z,5.20
2019-05-13T18:17:44.659Z,4.25
2019-05-13T18:20:12.918Z,4.80
2019-05-13T18:22:41.973Z,4.55
2019-05-13T18:25:11.994Z,5.53
2019-05-13T18:27:41.610Z,3.95
2019-05-13T18:30:11.383Z,4.83
2019-05-13T18:32:40.002Z,2.70
2019-05-13T18:35:08.311Z,3.80
2019-05-13T18:37:36.580Z,6.97
2019-05-13T18:40:05.988Z,5.65
2019-05-13T18:42:34.234Z,4.40
2019-05-13T18:45:02.540Z,3.52
2019-05-13T18:47:31.623Z,5.10
2019-05-13T18:50:02.199Z,4.20
2019-05-13T18:52:31.363Z,12.13
2019-05-13T18:55:01.927Z,17.42
2019-05-13T18:57:31.745Z,9.18
2019-05-13T19:00:01.951Z,6.00
2019-05-13T19:02:31.892Z,4.15
2019-05-13T19:05:01.481Z,4.87
2019-05-13T19:07:31.605Z,5.75
2019-05-13T19:10:02.311Z,7.37
2019-05-13T19:12:31.465Z,4.25
2019-05-13T19:15:02.476Z,4.75
2019-05-13T19:17:32.175Z,3.67
2019-05-13T19:20:00.384Z,3.33
2019-05-13T19:22:28.795Z,4.42
2019-05-13T19:24:57.065Z,4.03
2019-05-13T19:27:25.344Z,5.50
2019-05-13T19:29:53.593Z,3.27
2019-05-13T19:32:22.092Z,5.90
2019-05-13T19:34:51.640Z,3.70
2019-05-13T19:37:22.345Z,7.87
2019-05-13T19:39:50.183Z,11.43
2019-05-13T19:42:18.419Z,31.30
2019-05-13T19:44:46.683Z,18.00
2019-05-13T19:47:14.937Z,10.38
2019-05-13T19:49:46.459Z,5.50
2019-05-13T19:52:13.177Z,7.00
2019-05-13T19:54:41.976Z,6.40
2019-05-13T19:57:11.903Z,6.92
2019-05-13T19:59:42.479Z,7.83
2019-05-13T20:02:12.217Z,20.90
2019-05-13T20:04:41.322Z,27.58
2019-05-13T20:07:11.818Z,13.88
2019-05-13T20:09:42.354Z,8.33
2019-05-13T20:12:11.223Z,6.42
2019-05-13T20:14:39.918Z,6.08
2019-05-13T20:17:08.158Z,5.47
2019-05-13T20:19:47.595Z,6.20
2019-05-13T20:22:06.424Z,8.00
2019-05-13T20:24:34.658Z,6.15
2019-05-13T20:27:02.905Z,9.75
2019-05-13T20:29:31.191Z,7.40
2019-05-13T20:32:01.356Z,6.10
2019-05-13T20:34:31.501Z,6.72
2019-05-13T20:37:01.827Z,4.92
2019-05-13T20:39:31.724Z,9.20
2019-05-13T20:42:01.379Z,8.65
2019-05-13T20:44:31.275Z,6.78
2019-05-13T20:47:01.490Z,7.03
2019-05-13T20:49:31.220Z,11.95
2019-05-13T20:51:59.267Z,8.18
2019-05-13T20:54:27.519Z,7.30
2019-05-13T20:56:55.804Z,7.28
2019-05-13T20:59:24.062Z,6.08
2019-05-13T21:01:52.433Z,7.58
2019-05-13T21:04:21.538Z,5.60
2019-05-13T21:06:51.625Z,6.83
2019-05-13T21:09:20.157Z,5.78
2019-05-13T21:11:48.408Z,5.65
2019-05-13T21:14:16.686Z,6.90
2019-05-13T21:16:44.951Z,7.50
2019-05-13T21:19:13.237Z,6.90
2019-05-13T21:21:41.680Z,7.75
2019-05-13T21:24:10.103Z,7.30
2019-05-13T21:26:38.365Z,7.72
2019-05-13T21:29:06.607Z,6.10
2019-05-13T21:31:34.850Z,7.12
2019-05-13T21:34:03.120Z,7.78
2019-05-13T21:36:31.386Z,6.20
2019-05-13T21:39:01.647Z,6.65
2019-05-13T21:41:31.549Z,5.42
2019-05-13T21:44:01.305Z,5.17
2019-05-13T21:46:29.700Z,8.28
2019-05-13T21:48:57.953Z,5.47
2019-05-13T21:51:26.275Z,6.45
2019-05-13T21:53:54.535Z,4.05
2019-05-13T21:56:23.322Z,7.15
2019-05-13T21:58:52.228Z,5.97
2019-05-13T22:01:23.152Z,7.37
2019-05-13T22:03:51.435Z,7.25
2019-05-13T22:06:21.765Z,3.52
2019-05-13T22:08:51.815Z,5.72
2019-05-13T22:11:22.043Z,6.03
2019-05-13T22:13:51.451Z,6.78
2019-05-13T22:16:21.464Z,5.80
2019-05-13T22:18:52.228Z,6.40
2019-05-13T22:21:19.944Z,4.83
2019-05-13T22:23:48.230Z,5.55
2019-05-13T22:26:16.473Z,6.35
2019-05-13T22:28:44.722Z,5.75
2019-05-13T22:31:12.970Z,6.70
2019-05-13T22:33:41.366Z,4.53
2019-05-13T22:36:11.683Z,4.83
2019-05-13T22:38:39.687Z,5.95
2019-05-13T22:41:07.978Z,5.22
2019-05-13T22:43:36.249Z,7.10
2019-05-13T22:46:04.571Z,5.47
2019-05-13T22:48:32.840Z,3.37
2019-05-13T22:51:01.498Z,6.72
2019-05-13T22:53:31.901Z,5.72
2019-05-13T22:56:00.146Z,6.97
2019-05-13T22:58:28.399Z,3.65
2019-05-13T23:00:56.682Z,6.62
2019-05-13T23:03:24.922Z,5.72
2019-05-13T23:05:53.189Z,5.58
2019-05-13T23:08:21.783Z,7.78
2019-05-13T23:10:51.494Z,4.67
2019-05-13T23:13:20.089Z,5.70
2019-05-13T23:15:48.403Z,4.78
2019-05-13T23:18:16.669Z,4.75
2019-05-13T23:20:44.921Z,9.03
2019-05-13T23:23:13.236Z,6.15
2019-05-13T23:25:43.258Z,7.37
2019-05-13T23:28:11.475Z,6.05
2019-05-13T23:30:41.598Z,4.25
2019-05-13T23:33:11.671Z,4.45
2019-05-13T23:35:41.754Z,7.25
2019-05-13T23:38:09.614Z,5.50
2019-05-13T23:40:37.881Z,6.97
2019-05-13T23:43:06.126Z,6.03
2019-05-13T23:45:34.369Z,7.92
2019-05-13T23:48:02.637Z,8.40
2019-05-13T23:50:32.094Z,4.85
2019-05-13T23:53:01.393Z,6.62
2019-05-13T23:55:31.950Z,5.28
2019-05-13T23:58:01.629Z,5.55
